Sherwood, Michigan
Current Conditions -  °F | °C
As of 6:54 PM on Saturday 22 Nov 2014 (Local Time) from KOEB Reporting Station
Light Rain Light Rain  
Wind Chill: 43°   Ceiling: 2700
Heat Index: 48°   Visibility: 10mi
Dew Point: 46°   Wind: 13mph
Humidity: 91%   Direction: 210°SSW
Pressure: 29.93"   Gusts: 16mph
Location:  42°N, 85.24°W
Report Text: KOEB 222354Z AUTO 21011G14KT 10SM -RA BKN027 OVC035 09/08 A2993 RMK AO2 T00900076 10090 20061
Loading
Personal Weather Stations






























Interactive Weather Map New forecast layout! Learn more

10-Day Weather Forecast

Advertisements
Track Severe Weather on mobile